createdAt,value
2017-07-25T00:02:04.448Z,6.50
2017-07-25T00:04:32.135Z,5.70
2017-07-25T00:06:59.776Z,5.93
2017-07-25T00:09:27.373Z,6.07
2017-07-25T00:11:54.919Z,6.30
2017-07-25T00:14:22.427Z,6.40
2017-07-25T00:16:53.751Z,6.20
2017-07-25T00:19:21.256Z,7.68
2017-07-25T00:21:48.803Z,6.50
2017-07-25T00:24:16.344Z,5.32
2017-07-25T00:26:44.617Z,5.40
2017-07-25T00:29:12.430Z,5.85
2017-07-25T00:31:43.653Z,5.82
2017-07-25T00:34:11.156Z,6.45
2017-07-25T00:36:38.767Z,5.53
2017-07-25T00:39:06.310Z,5.28
2017-07-25T00:41:34.570Z,6.45
2017-07-25T00:44:02.063Z,5.22
2017-07-25T00:46:33.578Z,4.20
2017-07-25T00:49:01.073Z,5.65
2017-07-25T00:51:32.414Z,5.32
2017-07-25T00:53:59.915Z,4.97
2017-07-25T00:56:27.583Z,5.78
2017-07-25T00:58:55.113Z,4.50
2017-07-25T01:01:26.061Z,5.32
2017-07-25T01:03:53.583Z,4.97
2017-07-25T01:06:24.572Z,5.12
2017-07-25T01:08:52.121Z,6.32
2017-07-25T01:11:19.625Z,5.47
2017-07-25T01:13:47.136Z,5.10
2017-07-25T01:16:18.680Z,4.60
2017-07-25T01:18:49.219Z,5.28
2017-07-25T01:21:16.880Z,5.00
2017-07-25T01:23:44.747Z,5.45
2017-07-25T01:26:12.259Z,5.12
2017-07-25T01:28:40.563Z,5.30
2017-07-25T01:31:11.118Z,5.37
2017-07-25T01:33:42.550Z,5.90
2017-07-25T01:36:10.057Z,5.47
2017-07-25T01:38:37.619Z,5.87
2017-07-25T01:41:06.104Z,5.70
2017-07-25T01:43:33.644Z,5.60
2017-07-25T01:46:01.396Z,6.10
2017-07-25T01:51:02.756Z,5.87
2017-07-25T01:53:30.520Z,5.57
2017-07-25T01:55:58.019Z,7.10
2017-07-25T01:58:25.572Z,6.32
2017-07-25T02:00:53.069Z,6.25
2017-07-25T02:03:20.567Z,7.45
2017-07-25T02:05:51.471Z,6.35
2017-07-25T02:08:18.983Z,6.35
2017-07-25T02:10:46.474Z,6.72
2017-07-25T02:13:14.151Z,6.25
2017-07-25T02:15:41.704Z,5.35
2017-07-25T02:18:09.211Z,6.75
2017-07-25T02:20:36.763Z,6.40
2017-07-25T02:23:07.076Z,5.20
2017-07-25T02:25:34.694Z,6.25
2017-07-25T02:28:02.241Z,4.80
2017-07-25T02:30:30.036Z,6.35
2017-07-25T02:33:04.951Z,6.28
2017-07-25T02:35:33.316Z,5.07
2017-07-25T02:38:01.672Z,5.95
2017-07-25T02:40:29.172Z,5.40
2017-07-25T02:42:56.670Z,5.65
2017-07-25T02:45:24.667Z,5.72
2017-07-25T02:47:56.688Z,5.30
2017-07-25T02:50:24.191Z,5.78
2017-07-25T02:52:51.807Z,6.22
2017-07-25T02:55:22.957Z,5.30
2017-07-25T02:57:57.649Z,5.75
2017-07-25T03:00:25.204Z,6.68
2017-07-25T03:02:52.708Z,6.55
2017-07-25T03:05:20.248Z,7.93
2017-07-25T03:07:48.026Z,7.35
2017-07-25T03:10:15.529Z,8.15
2017-07-25T03:12:43.840Z,8.00
2017-07-25T03:15:11.344Z,7.97
2017-07-25T03:17:39.922Z,8.05
2017-07-25T03:20:11.471Z,8.35
2017-07-25T03:22:38.990Z,8.00
2017-07-25T03:25:10.031Z,8.63
2017-07-25T03:27:37.743Z,10.20
2017-07-25T03:30:12.314Z,8.73
2017-07-25T03:32:39.812Z,9.10
2017-07-25T03:35:07.317Z,9.95
2017-07-25T03:37:34.907Z,9.57
2017-07-25T03:40:02.418Z,10.57
2017-07-25T03:42:29.927Z,10.40
2017-07-25T03:44:57.691Z,10.50
2017-07-25T03:47:25.211Z,10.30
2017-07-25T03:49:56.451Z,9.98
2017-07-25T03:52:23.959Z,10.25
2017-07-25T03:54:58.919Z,11.20
2017-07-25T03:57:26.423Z,9.65
2017-07-25T03:59:54.072Z,11.48
2017-07-25T04:02:21.739Z,10.50
2017-07-25T04:04:49.567Z,11.35
2017-07-25T04:07:17.124Z,11.30
2017-07-25T04:09:44.761Z,12.05
2017-07-25T04:12:12.260Z,11.05
2017-07-25T04:14:39.800Z,11.95
2017-07-25T04:17:07.310Z,12.95
2017-07-25T04:19:46.659Z,12.40
2017-07-25T04:22:14.297Z,12.20
2017-07-25T04:24:41.816Z,13.43
2017-07-25T04:27:09.356Z,11.65
2017-07-25T04:29:37.491Z,13.80
2017-07-25T04:32:05.008Z,14.40
2017-07-25T04:34:33.906Z,12.25
2017-07-25T04:37:01.450Z,14.70
2017-07-25T04:39:28.968Z,14.43
2017-07-25T04:41:56.515Z,13.30
2017-07-25T04:44:24.020Z,13.10
2017-07-25T04:46:51.571Z,14.27
2017-07-25T04:49:19.087Z,12.23
2017-07-25T04:51:46.611Z,14.25
2017-07-25T04:54:17.143Z,14.93
2017-07-25T04:56:44.649Z,14.20
2017-07-25T04:59:12.262Z,14.07
2017-07-25T05:01:39.858Z,14.38
2017-07-25T05:04:07.369Z,14.77
2017-07-25T05:06:38.473Z,14.32
2017-07-25T05:09:06.039Z,13.25
2017-07-25T05:11:33.952Z,14.20
2017-07-25T05:14:01.456Z,15.60
2017-07-25T05:16:29.228Z,13.38
2017-07-25T05:18:56.735Z,14.90
2017-07-25T05:21:31.914Z,16.77
2017-07-25T05:23:59.443Z,13.90
2017-07-25T05:26:27.016Z,14.60
2017-07-25T05:28:54.692Z,16.42
2017-07-25T05:31:22.205Z,15.00
2017-07-25T05:33:49.770Z,14.73
2017-07-25T05:36:17.311Z,15.20
2017-07-25T05:38:45.244Z,13.57
2017-07-25T05:41:12.759Z,15.73
2017-07-25T05:43:41.199Z,14.95
2017-07-25T05:46:08.750Z,13.82
2017-07-25T05:48:36.614Z,15.07
2017-07-25T05:51:04.122Z,12.95
2017-07-25T05:53:31.624Z,13.00
2017-07-25T05:56:02.047Z,14.10
2017-07-25T05:58:29.551Z,13.80
2017-07-25T06:00:57.072Z,14.32
2017-07-25T06:03:24.611Z,15.18
2017-07-25T06:05:55.266Z,14.32
2017-07-25T06:08:25.779Z,15.38
2017-07-25T06:10:53.279Z,14.43
2017-07-25T06:13:20.816Z,14.73
2017-07-25T06:15:48.360Z,12.27
2017-07-25T06:18:15.871Z,13.45
2017-07-25T06:20:43.435Z,12.65
2017-07-25T06:23:10.931Z,13.88
2017-07-25T06:25:38.477Z,12.50
2017-07-25T06:28:06.088Z,13.07
2017-07-25T06:30:33.613Z,12.05
2017-07-25T06:33:01.252Z,15.27
2017-07-25T06:35:28.756Z,12.80
2017-07-25T06:37:56.278Z,13.10
2017-07-25T06:40:30.796Z,11.65
2017-07-25T06:42:58.305Z,14.00
2017-07-25T06:45:25.887Z,11.00
2017-07-25T06:47:53.447Z,11.10
2017-07-25T06:50:20.954Z,11.05
2017-07-25T06:52:48.464Z,11.05
2017-07-25T06:55:20.423Z,10.48
2017-07-25T06:57:51.086Z,10.15
2017-07-25T07:00:18.587Z,12.27
2017-07-25T07:02:46.134Z,9.98
2017-07-25T07:05:13.640Z,10.40
2017-07-25T07:07:41.960Z,9.80
2017-07-25T07:10:09.468Z,9.27
2017-07-25T07:12:37.442Z,9.75
2017-07-25T07:15:04.984Z,9.43
2017-07-25T07:17:32.593Z,9.30
2017-07-25T07:20:00.420Z,10.10
2017-07-25T07:22:32.537Z,9.05
2017-07-25T07:25:03.980Z,8.77
2017-07-25T07:27:31.789Z,8.13
2017-07-25T07:29:59.289Z,9.95
2017-07-25T07:32:26.915Z,10.60
2017-07-25T07:34:54.419Z,10.27
2017-07-25T07:37:25.169Z,10.68
2017-07-25T07:39:52.803Z,10.13
2017-07-25T07:42:20.309Z,10.77
2017-07-25T07:44:47.875Z,9.32
2017-07-25T07:47:15.451Z,9.68
2017-07-25T07:49:43.423Z,9.95
2017-07-25T07:52:10.933Z,10.93
2017-07-25T07:54:42.031Z,11.10
2017-07-25T07:57:13.575Z,11.27
2017-07-25T07:59:41.124Z,9.80
2017-07-25T08:02:09.099Z,9.15
2017-07-25T08:04:36.607Z,10.00
2017-07-25T08:07:04.382Z,8.75
2017-07-25T08:09:36.344Z,10.13
2017-07-25T08:12:03.855Z,9.82
2017-07-25T08:14:32.484Z,10.60
2017-07-25T08:16:59.986Z,10.57
2017-07-25T08:19:27.491Z,10.55
2017-07-25T08:21:55.176Z,11.02
2017-07-25T08:24:22.681Z,12.15
2017-07-25T08:26:50.243Z,10.13
2017-07-25T08:29:21.218Z,12.30
2017-07-25T08:31:49.141Z,10.07
2017-07-25T08:34:16.716Z,10.88
2017-07-25T08:36:44.263Z,12.40
2017-07-25T08:39:15.968Z,10.55
2017-07-25T08:41:43.727Z,10.25
2017-07-25T08:44:11.482Z,11.60
2017-07-25T08:46:39.053Z,11.85
2017-07-25T08:49:06.734Z,11.38
2017-07-25T08:51:34.292Z,14.45
2017-07-25T08:54:01.808Z,11.15
2017-07-25T08:56:30.255Z,10.30
2017-07-25T08:58:57.827Z,8.68
2017-07-25T09:01:26.113Z,8.95
2017-07-25T09:03:53.615Z,8.95
2017-07-25T09:06:21.161Z,8.85
2017-07-25T09:08:49.175Z,8.88
2017-07-25T09:11:20.011Z,8.13
2017-07-25T09:13:48.316Z,9.32
2017-07-25T09:16:15.878Z,10.88
2017-07-25T09:18:44.239Z,9.13
2017-07-25T09:21:11.757Z,9.93
2017-07-25T09:23:59.055Z,10.52
2017-07-25T09:26:26.739Z,9.70
2017-07-25T09:28:54.249Z,9.50
2017-07-25T09:31:21.823Z,9.75
2017-07-25T09:33:49.921Z,7.85
2017-07-25T09:36:17.555Z,7.40
2017-07-25T09:38:45.086Z,6.65
2017-07-25T09:41:12.592Z,4.93
2017-07-25T09:43:43.624Z,7.18
2017-07-25T09:46:11.402Z,7.35
2017-07-25T09:48:38.906Z,7.37
2017-07-25T09:51:06.474Z,7.30
2017-07-25T09:53:34.050Z,7.15
2017-07-25T09:56:01.574Z,7.15
2017-07-25T09:58:29.086Z,8.50
2017-07-25T10:00:56.692Z,7.82
2017-07-25T10:03:24.580Z,6.95
2017-07-25T10:05:52.235Z,6.28
2017-07-25T10:08:19.847Z,7.90
2017-07-25T10:10:50.887Z,7.57
2017-07-25T10:13:18.386Z,7.22
2017-07-25T10:15:46.827Z,5.62
2017-07-25T10:18:14.369Z,4.30
2017-07-25T10:20:41.914Z,5.40
2017-07-25T10:23:09.419Z,4.68
2017-07-25T10:25:36.929Z,4.35
2017-07-25T10:28:05.210Z,3.10
2017-07-25T10:30:32.735Z,3.12
2017-07-25T10:33:00.343Z,2.75
2017-07-25T10:35:28.020Z,3.40
2017-07-25T10:37:56.644Z,4.57
2017-07-25T10:40:31.851Z,3.55
2017-07-25T10:43:03.291Z,4.22
2017-07-25T10:45:30.790Z,4.20
2017-07-25T10:48:02.203Z,4.00
2017-07-25T10:50:29.742Z,4.45
2017-07-25T10:52:57.303Z,4.65
2017-07-25T10:55:28.520Z,6.07
2017-07-25T10:58:00.906Z,5.40
2017-07-25T11:00:29.279Z,4.93
2017-07-25T11:02:56.793Z,5.68
2017-07-25T11:05:24.298Z,4.25
2017-07-25T11:07:52.977Z,5.35
2017-07-25T11:10:20.484Z,2.95
2017-07-25T11:12:47.998Z,5.43
2017-07-25T11:15:18.585Z,4.60
2017-07-25T11:17:46.078Z,6.40
2017-07-25T11:20:14.365Z,4.60
2017-07-25T11:22:45.371Z,4.72
2017-07-25T11:25:12.872Z,5.18
2017-07-25T11:27:43.828Z,5.30
2017-07-25T11:30:11.327Z,4.75
2017-07-25T11:32:38.829Z,4.90
2017-07-25T11:35:11.103Z,4.78
2017-07-25T11:37:38.603Z,4.40
2017-07-25T11:40:06.278Z,5.40
2017-07-25T11:42:33.817Z,4.32
2017-07-25T11:45:06.184Z,4.70
2017-07-25T11:47:33.713Z,4.40
2017-07-25T11:50:01.390Z,3.97
2017-07-25T11:52:28.963Z,4.70
2017-07-25T11:54:56.598Z,4.53
2017-07-25T11:57:28.091Z,3.70
2017-07-25T11:59:55.720Z,4.07
2017-07-25T12:02:23.232Z,3.95
2017-07-25T12:04:50.776Z,4.18
2017-07-25T12:07:18.352Z,2.80
2017-07-25T12:09:45.948Z,3.50
2017-07-25T12:12:13.466Z,4.50
2017-07-25T12:14:44.868Z,3.70
2017-07-25T12:17:15.512Z,3.30
2017-07-25T12:19:43.007Z,3.60
2017-07-25T12:22:10.520Z,3.00
2017-07-25T12:24:38.058Z,3.20
2017-07-25T12:27:08.917Z,3.45
2017-07-25T12:29:36.431Z,2.70
2017-07-25T12:32:09.061Z,3.70
2017-07-25T12:34:39.574Z,2.55
2017-07-25T12:37:07.084Z,2.12
2017-07-25T12:39:35.627Z,2.80
2017-07-25T12:42:03.360Z,2.62
2017-07-25T12:44:30.871Z,2.62
2017-07-25T12:46:59.057Z,2.97
2017-07-25T12:49:26.773Z,3.35
2017-07-25T12:51:54.271Z,2.80
2017-07-25T12:54:21.982Z,2.97
2017-07-25T12:56:49.792Z,1.90
2017-07-25T12:59:17.346Z,2.60
2017-07-25T13:01:56.491Z,2.70
2017-07-25T13:04:23.992Z,2.45
2017-07-25T13:06:51.875Z,2.60
2017-07-25T13:09:19.414Z,2.10
2017-07-25T13:11:46.911Z,2.42
2017-07-25T13:14:14.474Z,2.30
2017-07-25T13:16:42.084Z,2.30
2017-07-25T13:19:10.375Z,2.12
2017-07-25T13:21:38.063Z,1.80
2017-07-25T13:24:05.615Z,2.50
2017-07-25T13:26:33.788Z,2.40
2017-07-25T13:29:01.287Z,1.80
2017-07-25T13:31:29.315Z,3.17
2017-07-25T13:33:56.875Z,2.35
2017-07-25T13:36:24.538Z,2.10
2017-07-25T13:38:52.132Z,2.15
2017-07-25T13:41:19.671Z,1.80
2017-07-25T13:43:47.247Z,1.80
2017-07-25T13:46:14.755Z,2.12
2017-07-25T13:48:42.299Z,1.90
2017-07-25T13:51:09.799Z,2.00
2017-07-25T13:53:37.351Z,2.25
2017-07-25T13:56:04.921Z,2.35
2017-07-25T13:58:32.420Z,2.15
2017-07-25T14:00:59.997Z,2.78
2017-07-25T14:03:27.507Z,2.70
2017-07-25T14:05:55.018Z,1.90
2017-07-25T14:08:22.572Z,2.03
2017-07-25T14:10:50.123Z,2.33
2017-07-25T14:13:18.479Z,2.10
2017-07-25T14:15:46.019Z,2.90
2017-07-25T14:18:13.620Z,2.47
2017-07-25T14:20:41.119Z,2.70
2017-07-25T14:23:08.617Z,2.05
2017-07-25T14:25:36.199Z,2.00
2017-07-25T14:28:03.763Z,2.35
2017-07-25T14:30:31.259Z,3.42
2017-07-25T14:33:02.395Z,2.00
2017-07-25T14:35:29.903Z,4.40
2017-07-25T14:37:57.394Z,3.70
2017-07-25T14:40:24.987Z,2.00
2017-07-25T14:42:52.560Z,3.03
2017-07-25T14:45:20.051Z,1.20
2017-07-25T14:47:52.769Z,2.15
2017-07-25T14:50:20.270Z,2.10
2017-07-25T14:52:51.255Z,2.17
2017-07-25T14:55:18.796Z,2.25
2017-07-25T14:57:47.157Z,3.08
2017-07-25T15:00:15.431Z,2.35
2017-07-25T15:02:43.295Z,3.10
2017-07-25T15:05:15.000Z,3.12
2017-07-25T15:07:42.504Z,1.70
2017-07-25T15:10:10.080Z,2.33
2017-07-25T15:12:37.683Z,1.98
2017-07-25T15:15:05.182Z,1.90
2017-07-25T15:17:32.678Z,1.60
2017-07-25T15:20:03.185Z,2.47
2017-07-25T15:22:30.743Z,3.15
2017-07-25T15:25:09.711Z,2.20
2017-07-25T15:27:37.216Z,2.60
2017-07-25T15:30:05.230Z,2.25
2017-07-25T15:32:37.248Z,2.25
2017-07-25T15:35:04.748Z,2.55
2017-07-25T15:37:32.525Z,2.37
2017-07-25T15:40:00.055Z,2.37
2017-07-25T15:42:28.355Z,1.50
2017-07-25T15:44:55.937Z,1.65
2017-07-25T15:47:23.443Z,1.70
2017-07-25T15:49:51.146Z,2.30
2017-07-25T15:52:18.732Z,2.08
2017-07-25T15:54:46.259Z,2.80
2017-07-25T15:57:13.783Z,2.37
2017-07-25T15:59:42.079Z,2.85
2017-07-25T16:02:09.801Z,2.85
2017-07-25T16:04:41.680Z,2.67
2017-07-25T16:07:13.371Z,3.20
2017-07-25T16:09:40.879Z,3.80
2017-07-25T16:12:15.969Z,2.22
2017-07-25T16:14:43.511Z,2.95
2017-07-25T16:17:14.498Z,2.25
2017-07-25T16:19:43.040Z,2.10
2017-07-25T16:22:10.586Z,2.20
2017-07-25T16:24:38.890Z,2.45
2017-07-25T16:27:06.398Z,2.40
2017-07-25T16:29:34.107Z,2.80
2017-07-25T16:32:02.180Z,3.03
2017-07-25T16:34:29.704Z,2.72
2017-07-25T16:36:57.294Z,2.58
2017-07-25T16:39:24.796Z,3.30
2017-07-25T16:41:53.251Z,2.95
2017-07-25T16:44:20.820Z,2.72
2017-07-25T16:46:48.460Z,5.82
2017-07-25T16:49:16.367Z,2.85
2017-07-25T16:51:47.921Z,3.15
2017-07-25T16:54:15.427Z,3.37
2017-07-25T16:56:43.363Z,3.40
2017-07-25T16:59:10.899Z,3.03
2017-07-25T17:01:38.432Z,3.37
2017-07-25T17:04:09.015Z,3.12
2017-07-25T17:06:37.179Z,3.65
2017-07-25T17:09:04.986Z,4.05
2017-07-25T17:11:32.668Z,4.20
2017-07-25T17:14:01.074Z,3.50
2017-07-25T17:16:28.628Z,3.47
2017-07-25T17:18:56.378Z,3.70
2017-07-25T17:21:24.679Z,4.60
2017-07-25T17:23:56.837Z,4.80
2017-07-25T17:26:24.360Z,5.60
2017-07-25T17:28:52.617Z,4.75
2017-07-25T17:31:20.211Z,5.70
2017-07-25T17:33:54.903Z,6.78
2017-07-25T17:36:22.466Z,8.75
2017-07-25T17:38:49.979Z,7.72
2017-07-25T17:41:17.508Z,7.65
2017-07-25T17:43:45.043Z,8.13
2017-07-25T17:46:12.862Z,7.85
2017-07-25T17:48:44.994Z,7.18
2017-07-25T17:51:13.512Z,7.72
2017-07-25T17:53:41.026Z,9.30
2017-07-25T17:56:08.634Z,6.95
2017-07-25T17:58:36.208Z,7.97
2017-07-25T18:01:03.707Z,8.77
2017-07-25T18:03:31.211Z,8.20
2017-07-25T18:05:58.748Z,8.43
2017-07-25T18:08:26.280Z,7.93
2017-07-25T18:10:53.859Z,8.27
2017-07-25T18:13:21.400Z,7.68
2017-07-25T18:15:48.923Z,7.68
2017-07-25T18:18:20.199Z,9.18
2017-07-25T18:20:48.586Z,7.10
2017-07-25T18:23:16.281Z,6.30
2017-07-25T18:25:43.794Z,7.68
2017-07-25T18:28:11.532Z,6.90
2017-07-25T18:30:39.960Z,8.45
2017-07-25T18:33:07.525Z,7.75
2017-07-25T18:35:35.157Z,7.65
2017-07-25T18:38:02.671Z,6.82
2017-07-25T18:40:30.471Z,6.90
2017-07-25T18:42:58.021Z,7.30
2017-07-25T18:45:25.728Z,7.07
2017-07-25T18:47:53.369Z,7.28
2017-07-25T18:50:20.875Z,6.28
2017-07-25T18:52:48.407Z,5.25
2017-07-25T18:55:15.965Z,6.90
2017-07-25T18:57:43.491Z,7.05
2017-07-25T19:00:11.187Z,5.65
2017-07-25T19:02:38.744Z,5.50
2017-07-25T19:05:06.258Z,5.10
2017-07-25T19:07:34.555Z,4.70
2017-07-25T19:10:02.108Z,5.70
2017-07-25T19:12:29.612Z,6.35
2017-07-25T19:14:57.277Z,5.97
2017-07-25T19:17:24.774Z,5.30
2017-07-25T19:19:52.312Z,6.55
2017-07-25T19:22:19.908Z,6.45
2017-07-25T19:24:47.416Z,6.97
2017-07-25T19:27:14.939Z,5.90
2017-07-25T19:29:43.306Z,6.87
2017-07-25T19:32:10.871Z,7.82
2017-07-25T19:34:42.421Z,7.00
2017-07-25T19:37:09.935Z,7.25
2017-07-25T19:39:37.460Z,6.37
2017-07-25T19:42:04.975Z,5.93
2017-07-25T19:44:32.538Z,5.45
2017-07-25T19:47:00.039Z,6.28
2017-07-25T19:49:27.781Z,6.85
2017-07-25T19:51:55.316Z,5.62
2017-07-25T19:54:22.820Z,6.12
2017-07-25T19:56:50.573Z,5.50
2017-07-25T19:59:18.087Z,6.53
2017-07-25T20:01:45.592Z,6.35
2017-07-25T20:04:13.141Z,5.82
2017-07-25T20:06:40.644Z,7.05
2017-07-25T20:09:08.167Z,5.53
2017-07-25T20:11:35.761Z,5.45
2017-07-25T20:14:03.309Z,5.22
2017-07-25T20:16:31.329Z,4.90
2017-07-25T20:18:58.883Z,4.90
2017-07-25T20:21:26.555Z,4.25
2017-07-25T20:23:54.137Z,5.25
2017-07-25T20:26:21.710Z,5.43
2017-07-25T20:28:49.211Z,5.65
2017-07-25T20:31:16.763Z,5.25
2017-07-25T20:33:45.033Z,5.15
2017-07-25T20:36:12.534Z,4.22
2017-07-25T20:38:40.118Z,4.20
2017-07-25T20:41:07.755Z,4.70
2017-07-25T20:43:35.467Z,4.40
2017-07-25T20:46:03.066Z,4.30
2017-07-25T20:48:30.603Z,4.72
2017-07-25T20:50:58.201Z,4.70
2017-07-25T20:53:25.695Z,4.85
2017-07-25T20:55:53.243Z,4.68
2017-07-25T20:58:21.175Z,3.62
2017-07-25T21:00:48.720Z,3.50
2017-07-25T21:03:16.217Z,3.58
2017-07-25T21:05:48.180Z,3.97
2017-07-25T21:08:15.731Z,3.42
2017-07-25T21:10:43.246Z,3.37
2017-07-25T21:13:10.764Z,3.75
2017-07-25T21:15:38.312Z,3.90
2017-07-25T21:18:06.066Z,4.40
2017-07-25T21:20:34.124Z,3.55
2017-07-25T21:23:01.627Z,3.67
2017-07-25T21:25:29.215Z,3.78
2017-07-25T21:27:56.732Z,4.00
2017-07-25T21:30:24.273Z,3.45
2017-07-25T21:32:51.822Z,3.85
2017-07-25T21:35:19.579Z,2.80
2017-07-25T21:37:47.386Z,3.25
2017-07-25T21:40:14.932Z,3.25
2017-07-25T21:42:42.483Z,3.85
2017-07-25T21:45:10.018Z,3.33
2017-07-25T21:47:37.538Z,3.85
2017-07-25T21:50:05.084Z,4.80
2017-07-25T21:52:32.716Z,2.90
2017-07-25T21:55:00.323Z,4.78
2017-07-25T21:57:27.830Z,4.65
2017-07-25T21:59:55.366Z,3.42
2017-07-25T22:02:34.950Z,3.50
2017-07-25T22:05:02.490Z,2.90
2017-07-25T22:07:30.040Z,2.50
2017-07-25T22:09:58.018Z,3.03
2017-07-25T22:12:25.719Z,2.55
2017-07-25T22:14:53.346Z,2.28
2017-07-25T22:17:20.903Z,2.30
2017-07-25T22:19:48.489Z,2.90
2017-07-25T22:22:15.998Z,2.60
2017-07-25T22:24:43.511Z,2.42
2017-07-25T22:27:11.080Z,2.60
2017-07-25T22:29:38.607Z,3.20
2017-07-25T22:32:06.326Z,2.22
2017-07-25T22:34:33.851Z,2.30
2017-07-25T22:37:05.270Z,2.62
2017-07-25T22:39:33.044Z,2.10
2017-07-25T22:42:00.539Z,1.98
2017-07-25T22:44:28.280Z,2.05
2017-07-25T22:46:56.049Z,2.28
2017-07-25T22:49:23.575Z,2.15
2017-07-25T22:51:51.081Z,2.33
2017-07-25T22:54:18.982Z,2.15
2017-07-25T22:56:46.492Z,2.00
2017-07-25T22:59:13.989Z,2.00
2017-07-25T23:01:41.515Z,2.05
2017-07-25T23:04:09.027Z,2.00
2017-07-25T23:06:36.550Z,1.83
2017-07-25T23:09:04.105Z,2.00
2017-07-25T23:11:31.609Z,2.45
2017-07-25T23:13:59.140Z,1.90
2017-07-25T23:16:26.744Z,2.47
2017-07-25T23:18:54.241Z,2.10
2017-07-25T23:21:22.928Z,2.37
2017-07-25T23:23:51.187Z,1.80
2017-07-25T23:26:18.727Z,1.95
2017-07-25T23:28:46.279Z,1.98
2017-07-25T23:31:13.844Z,1.85
2017-07-25T23:33:41.347Z,2.15
2017-07-25T23:36:08.912Z,1.95
2017-07-25T23:38:36.468Z,1.70
2017-07-25T23:41:04.320Z,1.85
2017-07-25T23:45:54.051Z,1.73
2017-07-25T23:48:21.579Z,1.42
2017-07-25T23:50:50.151Z,2.20
2017-07-25T23:53:17.680Z,1.60
2017-07-25T23:55:45.189Z,1.95
2017-07-25T23:58:14.412Z,2.05
